Time;durP1;ratioP1;P1;durP2;ratioP2;P2;SDS_P1;SDS_P2;PMS_P1;PMS_P2;Temp;Humidity;BMP_temperature;BMP_pressure;BME280_temperature;BME280_humidity;BME280_pressure;Samples;Min_cycle;Max_cycle;Signal;HPM_P1;HPM_P2
2023/09/11 00:02:26;;;;;;;19.67;12.68;;;;;;;23.74;39.00;100572.27;1764856;81;21293;-77
2023/09/11 00:05:32;;;;;;;20.00;11.53;;;;;;;23.81;38.66;100574.34;1763472;81;21337;-77
2023/09/11 00:08:39;;;;;;;18.57;11.80;;;;;;;23.75;38.64;100570.61;1766214;81;21290;-77
2023/09/11 00:11:45;;;;;;;25.17;11.53;;;;;;;23.81;38.61;100568.20;1767309;81;21299;-77
2023/09/11 00:14:51;;;;;;;21.97;11.85;;;;;;;23.58;38.75;100565.59;1768353;81;21290;-77
2023/09/11 00:17:57;;;;;;;20.08;13.03;;;;;;;23.64;38.82;100568.77;1768718;81;21290;-77
2023/09/11 00:21:02;;;;;;;26.87;12.78;;;;;;;24.00;38.09;100565.94;1768727;81;21279;-78
2023/09/11 00:24:08;;;;;;;18.12;12.05;;;;;;;23.91;38.28;100560.52;1768394;80;21314;-78
2023/09/11 00:27:14;;;;;;;31.23;12.65;;;;;;;24.15;37.94;100564.73;1768269;81;21335;-78
2023/09/11 00:30:20;;;;;;;25.60;12.47;;;;;;;23.66;38.88;100565.16;1769531;81;21366;-78
2023/09/11 00:33:26;;;;;;;21.30;12.10;;;;;;;23.89;38.50;100558.51;1774398;81;21338;-78
2023/09/11 00:36:33;;;;;;;19.75;11.95;;;;;;;24.27;37.92;100553.97;1772290;81;21306;-78
2023/09/11 00:39:38;;;;;;;19.95;11.60;;;;;;;23.97;38.42;100553.33;1773525;81;21318;-78
2023/09/11 00:42:44;;;;;;;24.02;12.80;;;;;;;23.95;38.49;100557.50;1736515;82;21957;-78
2023/09/11 00:45:51;;;;;;;19.50;12.93;;;;;;;24.01;38.46;100550.87;1773108;80;21251;-78
2023/09/11 00:49:00;;;;;;;24.90;12.95;;;;;;;23.55;39.21;100552.13;1735130;82;21319;-78
2023/09/11 00:52:06;;;;;;;22.20;13.58;;;;;;;23.48;39.43;100542.55;1778367;79;21301;-78
2023/09/11 00:55:12;;;;;;;22.82;14.38;;;;;;;23.28;39.61;100546.40;1803935;79;21287;-78
2023/09/11 00:58:17;;;;;;;26.55;13.62;;;;;;;23.46;39.34;100547.53;1803822;79;21287;-79
2023/09/11 01:01:23;;;;;;;30.62;13.75;;;;;;;23.59;39.13;100540.20;1805056;79;21298;-78
2023/09/11 01:04:28;;;;;;;29.65;12.53;;;;;;;23.38;39.46;100543.24;1805421;79;21278;-78
2023/09/11 01:07:35;;;;;;;24.55;15.30;;;;;;;23.53;39.11;100548.77;1805562;79;21287;-78
2023/09/11 01:10:40;;;;;;;27.55;15.70;;;;;;;23.44;39.32;100546.95;1805724;79;21577;-78
2023/09/11 01:13:46;;;;;;;23.00;13.78;;;;;;;23.41;39.40;100547.45;1805644;79;21306;-78
2023/09/11 01:17:08;;;;;;;25.97;14.10;;;;;;;23.32;39.64;100544.24;1804364;79;21327;-77
2023/09/11 01:20:43;;;;;;;26.15;14.73;;;;;;;23.39;39.58;100541.30;1805790;79;21267;-77
2023/09/11 01:24:14;;;;;;;22.87;13.62;;;;;;;23.53;39.32;100543.18;1779192;79;21888;-77
2023/09/11 01:27:27;;;;;;;24.37;14.83;;;;;;;23.56;39.08;100542.09;1774058;81;21233;-77
2023/09/11 01:30:32;;;;;;;21.60;15.18;;;;;;;23.27;39.54;100541.92;1773558;80;21294;-77
2023/09/11 01:33:38;;;;;;;25.75;15.85;;;;;;;23.51;39.06;100541.17;1771650;81;21286;-77
2023/09/11 01:36:44;;;;;;;22.65;14.35;;;;;;;23.52;38.94;100536.72;1770520;81;21842;-77
2023/09/11 01:39:50;;;;;;;29.25;15.63;;;;;;;23.44;38.92;100541.38;1770008;81;21287;-79
2023/09/11 01:42:59;;;;;;;31.70;15.05;;;;;;;23.39;39.08;100542.69;1734627;82;21676;-78
2023/09/11 01:46:04;;;;;;;26.73;15.98;;;;;;;23.54;38.71;100542.08;1727534;82;21343;-78
2023/09/11 01:49:09;;;;;;;28.25;16.12;;;;;;;23.45;38.73;100538.87;1768551;81;21298;-78
2023/09/11 01:52:17;;;;;;;20.62;14.85;;;;;;;23.16;39.32;100541.77;1734522;82;21300;-78
2023/09/11 01:55:23;;;;;;;25.15;15.45;;;;;;;23.27;39.21;100541.92;1764970;80;21307;-78
2023/09/11 01:58:29;;;;;;;28.67;15.80;;;;;;;23.28;39.31;100533.84;1756264;81;21296;-77
2023/09/11 02:01:35;;;;;;;26.40;16.25;;;;;;;23.35;39.30;100534.53;1799598;79;21283;-78
2023/09/11 02:04:40;;;;;;;22.62;15.00;;;;;;;23.24;39.48;100534.05;1800183;79;21272;-78
2023/09/11 02:07:47;;;;;;;28.55;16.55;;;;;;;23.13;39.52;100533.89;1798550;79;21655;-78
2023/09/11 02:10:54;;;;;;;24.90;14.75;;;;;;;23.44;39.27;100536.63;1800140;79;22584;-77
2023/09/11 02:14:00;;;;;;;28.80;14.87;;;;;;;23.45;39.16;100534.68;1798717;79;21267;-78
2023/09/11 02:17:05;;;;;;;21.73;15.18;;;;;;;23.50;39.07;100535.31;1799189;79;21271;-78
2023/09/11 02:20:13;;;;;;;21.65;13.65;;;;;;;23.41;39.12;100537.69;1800047;79;21308;-78
2023/09/11 02:23:18;;;;;;;22.98;15.60;;;;;;;23.37;39.17;100533.16;1800055;79;21280;-78
2023/09/11 02:26:23;;;;;;;28.55;16.57;;;;;;;23.63;38.74;100533.00;1799741;79;21322;-77
2023/09/11 02:29:31;;;;;;;24.07;15.63;;;;;;;23.72;38.58;100527.85;1800135;79;21283;-78
2023/09/11 02:32:37;;;;;;;26.77;14.33;;;;;;;23.43;39.14;100535.47;1799095;79;21311;-78
2023/09/11 02:35:45;;;;;;;20.90;15.18;;;;;;;23.48;39.13;100529.98;1800001;79;21264;-78
2023/09/11 02:38:51;;;;;;;27.55;14.65;;;;;;;23.54;39.01;100523.38;1798959;79;21318;-78
2023/09/11 02:41:57;;;;;;;24.15;14.98;;;;;;;23.55;39.13;100528.41;1800197;79;21621;-78
2023/09/11 02:45:03;;;;;;;22.27;15.20;;;;;;;23.65;39.04;100529.42;1799913;79;21288;-78
2023/09/11 02:48:10;;;;;;;20.08;14.45;;;;;;;23.58;39.21;100524.55;1798921;79;21299;-78
2023/09/11 02:51:17;;;;;;;23.45;14.40;;;;;;;23.50;39.40;100524.98;1799982;79;21276;-78
2023/09/11 02:54:22;;;;;;;32.10;14.25;;;;;;;23.58;39.19;100521.77;1800077;79;21279;-78
2023/09/11 02:57:27;;;;;;;31.90;15.28;;;;;;;23.68;39.04;100522.48;1799473;79;21326;-78
2023/09/11 03:00:32;;;;;;;27.85;14.50;;;;;;;22.81;40.66;100522.98;1800374;79;21307;-77
2023/09/11 03:03:38;;;;;;;31.50;15.30;;;;;;;23.07;40.13;100520.12;1800062;79;21311;-78
2023/09/11 03:06:45;;;;;;;21.40;14.15;;;;;;;23.11;40.05;100518.52;1800133;79;21997;-77
2023/09/11 03:09:51;;;;;;;25.90;15.45;;;;;;;23.18;39.93;100522.81;1800701;79;21311;-78
2023/09/11 03:12:57;;;;;;;20.65;14.28;;;;;;;23.26;39.85;100530.47;1800711;79;21853;-77
2023/09/11 03:16:02;;;;;;;27.82;15.05;;;;;;;23.28;39.83;100529.66;1800173;79;21271;-78
2023/09/11 03:19:10;;;;;;;28.02;16.05;;;;;;;23.57;39.38;100527.58;1799760;79;21295;-78
2023/09/11 03:22:16;;;;;;;27.93;16.37;;;;;;;23.56;39.37;100532.32;1800510;79;21279;-78
2023/09/11 03:25:21;;;;;;;25.00;15.68;;;;;;;23.47;39.45;100527.72;1799276;79;21280;-78
2023/09/11 03:28:26;;;;;;;25.97;15.68;;;;;;;23.44;39.50;100528.81;1799027;79;21350;-78
2023/09/11 03:31:31;;;;;;;35.35;15.90;;;;;;;23.46;39.60;100523.80;1800162;79;21322;-78
2023/09/11 03:34:36;;;;;;;26.55;15.40;;;;;;;23.37;39.75;100528.97;1802505;79;21307;-79
2023/09/11 03:37:42;;;;;;;26.97;14.85;;;;;;;23.27;40.06;100530.77;1804399;79;21314;-78
2023/09/11 03:40:47;;;;;;;26.00;14.90;;;;;;;23.40;39.85;100528.47;1805491;79;21283;-79
2023/09/11 03:43:52;;;;;;;28.02;15.35;;;;;;;23.39;40.11;100523.99;1805497;79;21305;-79
2023/09/11 03:46:57;;;;;;;30.10;15.40;;;;;;;23.45;40.09;100526.30;1805354;79;21303;-79
2023/09/11 03:50:04;;;;;;;35.83;15.45;;;;;;;22.93;41.09;100526.59;1804664;79;21342;-79
2023/09/11 03:53:10;;;;;;;28.75;14.75;;;;;;;22.94;41.16;100521.30;1787966;79;21298;-79
2023/09/11 03:56:15;;;;;;;19.77;13.05;;;;;;;23.59;40.30;100522.05;1773355;81;21306;-79
2023/09/11 03:59:21;;;;;;;26.55;14.38;;;;;;;23.68;40.19;100530.31;1772358;81;21329;-79
2023/09/11 04:02:26;;;;;;;24.85;14.33;;;;;;;23.52;40.58;100524.72;1773660;81;21293;-79
2023/09/11 04:05:32;;;;;;;23.42;14.60;;;;;;;23.78;40.13;100528.20;1772397;81;21337;-78
2023/09/11 04:08:38;;;;;;;23.32;15.13;;;;;;;23.59;40.55;100527.63;1795793;79;21339;-78
2023/09/11 04:11:45;;;;;;;20.32;13.60;;;;;;;23.59;40.75;100529.03;1735333;82;21352;-77
2023/09/11 04:14:53;;;;;;;28.30;13.80;;;;;;;23.49;40.94;100523.30;1735296;82;21319;-77
2023/09/11 04:17:59;;;;;;;25.70;13.90;;;;;;;23.46;41.05;100523.25;1746454;82;21319;-78
2023/09/11 04:21:09;;;;;;;25.97;13.90;;;;;;;23.79;40.65;100528.50;1735377;82;21797;-78
2023/09/11 04:24:15;;;;;;;26.90;14.33;;;;;;;23.86;40.67;100529.72;1728470;82;21335;-78
2023/09/11 04:27:20;;;;;;;22.25;13.48;;;;;;;24.11;40.39;100534.23;1735443;82;21335;-78
2023/09/11 04:30:26;;;;;;;29.82;14.40;;;;;;;24.16;40.39;100530.09;1735236;82;21312;-78
2023/09/11 04:33:31;;;;;;;21.00;13.58;;;;;;;24.58;39.81;100529.48;1737172;82;21834;-79
2023/09/11 04:36:37;;;;;;;34.90;14.28;;;;;;;24.57;39.94;100531.16;1735480;82;21331;-78
2023/09/11 04:39:44;;;;;;;20.52;13.72;;;;;;;24.35;40.30;100537.58;1772805;81;21831;-78
2023/09/11 04:42:51;;;;;;;26.42;13.65;;;;;;;24.73;39.67;100531.03;1774109;81;21326;-78
2023/09/11 04:45:56;;;;;;;24.65;14.63;;;;;;;24.83;39.38;100534.47;1773850;81;21292;-79
2023/09/11 04:49:01;;;;;;;20.20;13.35;;;;;;;24.80;39.61;100529.98;1773183;81;21342;-78
2023/09/11 04:52:06;;;;;;;24.77;12.88;;;;;;;25.13;39.27;100525.55;1777627;79;21295;-78
2023/09/11 04:55:13;;;;;;;29.00;12.35;;;;;;;25.95;37.95;100526.94;1805568;79;22446;-78
2023/09/11 04:58:19;;;;;;;22.20;13.13;;;;;;;25.96;37.97;100523.57;1805625;79;21284;-78
2023/09/11 05:01:23;;;;;;;26.30;11.18;;;;;;;26.32;37.57;100513.91;1805406;79;21298;-78
2023/09/11 05:04:29;;;;;;;22.98;12.98;;;;;;;26.41;37.58;100518.70;1804688;79;21291;-78
2023/09/11 05:07:36;;;;;;;20.23;11.53;;;;;;;26.61;37.09;100514.28;1779320;79;21889;-78
2023/09/11 05:10:42;;;;;;;19.55;11.93;;;;;;;26.49;37.25;100508.39;1774443;79;21358;-78
2023/09/11 05:13:48;;;;;;;20.92;11.30;;;;;;;26.90;36.71;100516.00;1773811;81;21305;-78
2023/09/11 05:16:55;;;;;;;22.95;12.30;;;;;;;26.85;36.56;100510.38;1794592;79;21108;-78
2023/09/11 05:20:02;;;;;;;25.75;12.58;;;;;;;26.97;36.40;100512.37;1786769;79;21318;-79
2023/09/11 05:23:07;;;;;;;20.60;11.25;;;;;;;26.79;36.82;100518.52;1788568;79;21286;-80
2023/09/11 05:26:13;;;;;;;24.20;12.45;;;;;;;27.35;35.58;100512.94;1780307;79;21334;-79
2023/09/11 05:29:18;;;;;;;18.95;10.78;;;;;;;27.47;35.23;100513.46;1782536;79;21850;-80
2023/09/11 05:32:25;;;;;;;19.98;12.07;;;;;;;27.54;35.23;100514.02;1771371;79;21285;-79
2023/09/11 05:35:32;;;;;;;17.52;11.45;;;;;;;27.52;35.03;100517.66;1783951;79;22346;-79
2023/09/11 05:38:37;;;;;;;17.85;10.90;;;;;;;27.33;35.42;100517.98;1785470;78;21290;-79
2023/09/11 05:41:44;;;;;;;21.00;11.85;;;;;;;27.45;35.33;100519.38;1784155;79;21302;-79
2023/09/11 05:44:50;;;;;;;23.75;11.18;;;;;;;27.04;36.09;100515.72;1780853;79;21350;-79
2023/09/11 05:47:55;;;;;;;22.95;10.95;;;;;;;27.16;35.84;100520.53;1787573;79;21298;-79
2023/09/11 05:51:01;;;;;;;21.85;11.25;;;;;;;27.83;34.86;100520.44;1777637;79;21840;-78
2023/09/11 05:54:00;;;;;;;18.02;9.53;;;;;;;28.03;34.68;100520.36;1784822;79;21909;-78
2023/09/11 05:57:06;;;;;;;17.37;9.33;;;;;;;28.02;34.65;100522.33;1717585;81;21440;-78
2023/09/11 06:00:12;;;;;;;19.00;10.85;;;;;;;28.20;34.45;100525.06;1711673;82;21332;-80
2023/09/11 06:03:18;;;;;;;20.05;11.40;;;;;;;27.83;35.04;100531.11;1726543;82;21284;-78
2023/09/11 06:06:24;;;;;;;17.07;10.08;;;;;;;28.11;34.55;100532.42;1708373;82;21337;-78
2023/09/11 06:09:29;;;;;;;16.27;9.80;;;;;;;28.66;33.89;100526.25;1778460;78;21330;-78
2023/09/11 06:12:35;;;;;;;17.42;10.18;;;;;;;28.84;33.45;100533.71;1794790;78;21305;-78
2023/09/11 06:15:42;;;;;;;18.00;10.05;;;;;;;28.74;33.52;100531.23;1785562;78;21333;-78
2023/09/11 06:18:49;;;;;;;28.57;11.15;;;;;;;28.63;33.56;100535.27;1790523;78;22288;-78
2023/09/11 06:21:55;;;;;;;20.32;10.55;;;;;;;28.64;33.69;100542.58;1744111;80;21340;-78
2023/09/11 06:25:04;;;;;;;22.40;9.70;;;;;;;28.60;33.69;100539.22;1759466;78;21279;-78
2023/09/11 06:28:11;;;;;;;16.52;9.08;;;;;;;28.74;33.59;100541.09;1783940;78;21267;-79
2023/09/11 06:31:17;;;;;;;13.55;8.60;;;;;;;29.17;33.05;100537.16;1785335;78;21310;-79
2023/09/11 06:34:22;;;;;;;17.80;8.55;;;;;;;29.46;32.67;100542.80;1805143;78;21318;-79
2023/09/11 06:41:58;;;;;;;11.88;8.05;;;;;;;29.46;32.33;100544.79;1799393;79;21113;-79
2023/09/11 06:45:04;;;;;;;10.85;7.50;;;;;;;29.83;32.09;100537.64;1787890;77;21331;-78
2023/09/11 06:48:10;;;;;;;13.38;7.60;;;;;;;30.06;31.66;100538.22;1790131;78;21318;-78
2023/09/11 06:51:16;;;;;;;14.85;7.20;;;;;;;30.06;31.62;100536.80;1795115;77;22379;-78
2023/09/11 06:54:23;;;;;;;9.83;6.92;;;;;;;30.38;31.07;100538.13;1785914;78;22500;-78
2023/09/11 06:57:29;;;;;;;9.83;6.05;;;;;;;30.45;30.83;100541.43;1797327;78;21871;-78
2023/09/11 07:00:35;;;;;;;13.18;7.03;;;;;;;30.70;30.69;100530.33;1769104;78;21320;-78
2023/09/11 07:03:39;;;;;;;9.45;5.87;;;;;;;30.83;30.47;100533.00;1798793;78;21906;-78
2023/09/11 07:06:46;;;;;;;7.40;5.95;;;;;;;30.19;31.28;100530.47;1789603;77;21274;-78
2023/09/11 07:09:54;;;;;;;10.85;6.97;;;;;;;30.36;30.98;100529.97;1799271;78;21283;-78
2023/09/11 07:12:59;;;;;;;12.95;6.17;;;;;;;30.96;29.98;100533.61;1786617;78;21323;-78
2023/09/11 07:16:08;;;;;;;9.63;5.55;;;;;;;31.28;29.41;100530.83;1805639;78;21835;-78
2023/09/11 07:19:13;;;;;;;5.42;4.25;;;;;;;30.63;30.12;100532.68;1788749;78;21290;-79
2023/09/11 07:22:18;;;;;;;7.35;4.28;;;;;;;30.66;29.53;100529.27;1793292;78;21937;-79
2023/09/11 07:25:23;;;;;;;8.30;4.87;;;;;;;30.56;29.54;100530.25;1795648;78;21333;-79
2023/09/11 07:28:29;;;;;;;7.70;4.72;;;;;;;30.23;29.97;100520.84;1787743;78;21353;-79
2023/09/11 07:31:35;;;;;;;6.72;4.50;;;;;;;30.21;30.24;100528.20;1785731;78;21301;-79
2023/09/11 07:34:42;;;;;;;16.52;5.83;;;;;;;30.84;29.18;100521.97;1784390;78;21308;-79
2023/09/11 07:37:51;;;;;;;8.83;5.03;;;;;;;31.02;29.01;100521.11;1782790;78;21266;-79
2023/09/11 07:41:00;;;;;;;7.35;4.37;;;;;;;31.04;28.71;100519.63;1802184;78;21302;-78
2023/09/11 07:44:06;;;;;;;7.10;4.60;;;;;;;31.20;28.54;100523.05;1795315;78;21310;-78
2023/09/11 07:47:14;;;;;;;6.15;4.42;;;;;;;31.36;28.59;100515.75;1797222;78;22306;-79
2023/09/11 07:50:20;;;;;;;8.10;4.60;;;;;;;31.24;28.54;100518.47;1787915;78;21296;-79
2023/09/11 07:53:26;;;;;;;9.33;4.87;;;;;;;31.37;27.89;100523.06;1779415;78;21295;-79
2023/09/11 07:56:33;;;;;;;8.70;4.55;;;;;;;30.86;28.34;100523.31;1788838;78;21885;-79
2023/09/11 07:59:38;;;;;;;8.78;4.25;;;;;;;30.74;28.56;100522.97;1780282;78;21294;-79
2023/09/11 08:02:48;;;;;;;6.80;4.05;;;;;;;30.78;28.36;100519.23;1790199;78;21315;-79
2023/09/11 08:05:59;;;;;;;6.85;4.55;;;;;;;31.19;27.86;100511.47;1778048;78;21338;-80
2023/09/11 08:09:03;;;;;;;9.83;4.47;;;;;;;31.30;27.85;100515.84;1774359;78;21342;-78
2023/09/11 08:12:08;;;;;;;6.42;3.83;;;;;;;31.38;27.61;100513.44;1790420;78;21287;-78
2023/09/11 08:15:14;;;;;;;5.90;4.67;;;;;;;31.25;27.59;100511.66;1773045;78;21633;-80
2023/09/11 08:18:21;;;;;;;6.80;4.17;;;;;;;31.03;27.73;100508.66;1784190;78;21299;-79
2023/09/11 08:21:28;;;;;;;6.15;4.05;;;;;;;30.75;28.36;100514.18;1781053;78;21304;-78
2023/09/11 08:24:33;;;;;;;7.62;4.47;;;;;;;30.42;28.80;100510.41;1789481;78;22567;-78
2023/09/11 08:27:39;;;;;;;8.65;4.35;;;;;;;30.64;28.50;100505.58;1796192;78;21303;-77
2023/09/11 08:30:46;;;;;;;6.25;4.37;;;;;;;30.95;28.20;100498.05;1782262;77;21294;-78
2023/09/11 08:33:51;;;;;;;5.12;3.80;;;;;;;31.15;27.75;100499.68;1788477;78;21310;-78
2023/09/11 08:36:56;;;;;;;7.15;4.20;;;;;;;30.79;28.19;100496.89;1781379;78;21326;-78
2023/09/11 08:40:01;;;;;;;5.95;4.30;;;;;;;30.76;27.87;100494.67;1798581;78;21272;-78
2023/09/11 08:43:07;;;;;;;5.85;3.90;;;;;;;30.88;27.61;100491.39;1780009;78;22412;-78
2023/09/11 08:46:19;;;;;;;5.55;4.22;;;;;;;30.83;27.47;100498.54;1791233;78;21673;-83
2023/09/11 08:49:25;;;;;;;7.97;3.37;;;;;;;31.44;26.56;100492.43;1739778;80;21205;-80
2023/09/11 08:52:32;;;;;;;10.45;4.05;;;;;;;31.70;26.46;100486.52;1708627;80;21327;-80
2023/09/11 08:55:40;;;;;;;4.92;3.40;;;;;;;31.72;26.29;100491.89;1787044;78;21637;-80
2023/09/11 08:58:46;;;;;;;4.20;3.25;;;;;;;31.51;26.26;100480.13;1751688;78;21191;-79
2023/09/11 09:01:52;;;;;;;4.47;3.30;;;;;;;31.80;25.82;100490.55;1790805;78;21870;-80
2023/09/11 09:04:58;;;;;;;5.83;3.58;;;;;;;32.15;24.98;100486.77;1732825;80;21253;-80
2023/09/11 09:08:04;;;;;;;4.45;3.50;;;;;;;32.55;24.58;100479.92;1748304;80;21742;-80
2023/09/11 09:11:10;;;;;;;4.50;3.22;;;;;;;32.34;24.91;100480.96;1719865;81;21976;-78
2023/09/11 09:14:16;;;;;;;6.35;3.50;;;;;;;32.66;24.66;100472.05;1770904;78;21213;-77
2023/09/11 09:17:18;;;;;;;7.35;3.67;;;;;;;32.77;24.52;100468.63;1766040;78;21345;-79
2023/09/11 09:20:12;;;;;;;5.70;3.33;;;;;;;33.06;23.90;100463.11;1797990;78;21203;-79
2023/09/11 09:23:20;;;;;;;4.85;3.02;;;;;;;33.20;23.57;100455.95;1762880;78;21314;-78
2023/09/11 09:26:29;;;;;;;5.45;2.83;;;;;;;33.25;23.27;100460.06;1732925;81;21299;-79
2023/09/11 09:29:44;;;;;;;7.15;3.47;;;;;;;33.20;23.62;100453.95;1733168;81;21346;-78
2023/09/11 09:32:51;;;;;;;4.37;3.15;;;;;;;33.35;23.74;100453.28;1721608;81;21957;-78
2023/09/11 09:35:59;;;;;;;5.12;3.12;;;;;;;33.32;23.43;100451.95;1760621;79;21337;-79
2023/09/11 09:39:04;;;;;;;3.95;3.12;;;;;;;33.31;22.94;100446.86;1787712;78;21199;-78
2023/09/11 09:42:12;;;;;;;5.33;3.47;;;;;;;33.42;22.72;100436.06;1773683;78;21266;-79
2023/09/11 09:45:22;;;;;;;4.58;2.98;;;;;;;33.63;22.62;100439.17;1787930;78;21846;-79
2023/09/11 09:48:28;;;;;;;7.22;3.40;;;;;;;33.98;22.66;100437.91;1787058;78;21259;-79
2023/09/11 09:51:35;;;;;;;4.95;3.52;;;;;;;34.10;22.95;100432.41;1777565;79;21893;-78
2023/09/11 09:54:58;;;;;;;8.40;3.87;;;;;;;34.13;22.43;100434.59;1779366;79;21295;-78
2023/09/11 09:58:05;;;;;;;6.08;3.67;;;;;;;34.18;22.48;100427.34;1717615;82;21659;-78
2023/09/11 10:01:25;;;;;;;6.58;4.10;;;;;;;34.01;22.58;100424.47;1781352;79;21312;-78
2023/09/11 10:04:31;;;;;;;;;;;;;;;33.85;22.51;100431.75;1775442;79;21635;-79
2023/09/11 10:07:51;;;;;;;8.00;3.83;;;;;;;33.69;22.88;100430.80;1777240;79;20291;-78
2023/09/11 10:10:57;;;;;;;4.95;3.72;;;;;;;33.66;22.94;100426.36;1783626;79;21244;-79
2023/09/11 10:14:05;;;;;;;5.62;3.90;;;;;;;33.37;23.15;100425.46;1706952;82;21292;-79
2023/09/11 10:17:11;;;;;;;5.25;4.08;;;;;;;33.33;23.13;100421.84;1782949;79;21872;-77
2023/09/11 10:20:21;;;;;;;8.58;4.55;;;;;;;33.28;23.10;100421.99;1781849;79;21287;-77
2023/09/11 10:23:27;;;;;;;7.58;4.10;;;;;;;33.41;23.01;100420.23;1728728;82;21343;-78
2023/09/11 10:26:54;;;;;;;6.83;4.05;;;;;;;33.41;23.03;100410.89;1720616;82;21303;-78
2023/09/11 10:30:11;;;;;;;8.83;4.17;;;;;;;33.30;23.23;100408.31;1778436;79;21607;-78
2023/09/11 10:33:28;;;;;;;8.35;4.28;;;;;;;33.40;23.33;100408.61;1786518;79;22038;-78
2023/09/11 10:36:42;;;;;;;5.42;3.92;;;;;;;33.37;22.98;100409.28;1788735;79;21297;-77
2023/09/11 10:39:49;;;;;;;8.53;4.00;;;;;;;33.42;22.90;100404.05;1779259;79;21289;-78
2023/09/11 10:42:55;;;;;;;9.20;4.30;;;;;;;33.58;22.88;100396.80;1774313;79;21289;-78
2023/09/11 10:46:02;;;;;;;9.33;4.42;;;;;;;33.69;22.62;100398.18;1776450;79;21279;-79
2023/09/11 10:49:08;;;;;;;8.75;4.12;;;;;;;33.77;22.36;100389.42;1783005;79;22326;-78
2023/09/11 10:52:16;;;;;;;12.95;3.72;;;;;;;33.71;22.61;100386.50;1753645;79;22411;-78
2023/09/11 10:55:23;;;;;;;7.53;3.83;;;;;;;33.71;22.37;100384.49;1764917;79;21341;-78
2023/09/11 10:58:30;;;;;;;5.58;3.65;;;;;;;33.65;22.24;100389.24;1776874;79;21267;-78
2023/09/11 11:01:35;;;;;;;11.22;4.05;;;;;;;33.85;21.96;100387.20;1767226;79;21288;-79
2023/09/11 11:04:41;;;;;;;6.45;4.25;;;;;;;33.82;21.53;100379.34;1719812;82;21252;-78
2023/09/11 11:07:46;;;;;;;6.95;4.05;;;;;;;33.72;21.91;100383.32;1724136;81;21305;-79
2023/09/11 11:11:00;;;;;;;5.62;3.62;;;;;;;33.51;22.18;100385.11;1782953;79;21256;-79
2023/09/11 11:14:25;;;;;;;5.40;3.62;;;;;;;33.45;22.38;100379.31;1781058;79;21303;-78
2023/09/11 11:17:31;;;;;;;5.70;3.52;;;;;;;33.40;21.72;100375.18;1784265;79;22316;-78
2023/09/11 11:20:37;;;;;;;7.10;3.92;;;;;;;33.46;21.54;100371.09;1722872;79;21310;-78
2023/09/11 11:23:46;;;;;;;8.93;3.62;;;;;;;33.43;21.58;100364.64;1778819;79;21354;-78
2023/09/11 11:26:51;;;;;;;11.53;3.83;;;;;;;33.48;21.77;100370.16;1779850;79;21906;-78
2023/09/11 11:29:58;;;;;;;11.90;4.40;;;;;;;33.72;21.48;100364.05;1751789;80;21277;-79
2023/09/11 11:33:03;;;;;;;6.65;3.67;;;;;;;33.92;21.43;100363.41;1777467;79;21299;-79
2023/09/11 11:36:14;;;;;;;7.37;3.72;;;;;;;33.90;21.53;100359.25;1778813;79;21314;-79
2023/09/11 11:39:23;;;;;;;6.62;3.95;;;;;;;33.99;21.61;100361.55;1775235;79;21278;-79
2023/09/11 11:42:32;;;;;;;5.20;3.67;;;;;;;33.85;21.64;100359.41;1781974;79;21402;-79
2023/09/11 11:45:37;;;;;;;5.55;3.55;;;;;;;33.82;21.32;100354.64;1779099;79;21867;-78
2023/09/11 11:48:44;;;;;;;18.07;11.50;;;;;;;33.78;21.28;100355.63;1781582;79;21314;-78
2023/09/11 11:51:50;;;;;;;6.87;3.65;;;;;;;33.64;21.57;100348.67;1728384;82;22564;-79
2023/09/11 11:54:56;;;;;;;5.15;4.05;;;;;;;33.67;21.21;100346.61;1769874;79;21346;-79
2023/09/11 11:58:03;;;;;;;5.83;3.60;;;;;;;33.36;21.30;100345.81;1801700;79;21319;-78
2023/09/11 12:01:13;;;;;;;7.50;4.15;;;;;;;33.19;21.71;100337.52;1758150;79;21308;-78
2023/09/11 12:04:18;;;;;;;9.75;4.53;;;;;;;33.22;21.85;100341.13;1783259;79;21274;-78
2023/09/11 12:07:22;;;;;;;10.98;4.40;;;;;;;33.45;21.66;100332.53;1790840;79;21310;-78
2023/09/11 12:10:18;;;;;;;6.60;4.00;;;;;;;33.45;21.82;100328.28;1780546;79;21302;-79
2023/09/11 12:13:04;;;;;;;6.03;4.12;;;;;;;33.62;22.04;100326.92;1786991;79;21290;-79
2023/09/11 12:16:04;;;;;;;8.00;4.42;;;;;;;33.82;21.78;100326.27;1781020;79;21332;-79
2023/09/11 12:18:50;;;;;;;7.65;4.00;;;;;;;33.92;21.56;100325.70;1727706;82;21311;-79
2023/09/11 12:21:43;;;;;;;7.47;3.98;;;;;;;33.97;21.42;100328.41;1783510;79;21317;-79
2023/09/11 12:24:29;;;;;;;9.33;4.30;;;;;;;33.82;21.17;100329.70;1774375;79;21303;-79
2023/09/11 12:27:22;;;;;;;7.33;3.85;;;;;;;33.74;21.11;100325.70;1781316;79;21365;-78
2023/09/11 12:30:27;;;;;;;13.83;4.42;;;;;;;33.73;21.08;100323.17;1785468;79;22365;-78
2023/09/11 12:33:35;;;;;;;6.60;4.75;;;;;;;33.64;21.21;100328.83;1774492;79;21318;-80
2023/09/11 12:36:41;;;;;;;8.93;4.67;;;;;;;33.58;21.28;100323.06;1778692;79;21310;-80
2023/09/11 12:39:46;;;;;;;8.95;4.62;;;;;;;33.53;21.52;100322.64;1783623;79;21337;-80
2023/09/11 12:42:51;;;;;;;11.18;4.42;;;;;;;33.47;21.41;100321.13;1773123;79;21850;-79
2023/09/11 12:45:56;;;;;;;9.88;4.30;;;;;;;33.35;21.39;100315.80;1796302;79;21349;-79
2023/09/11 12:49:03;;;;;;;12.60;4.80;;;;;;;33.43;21.32;100312.20;1782335;79;21353;-79
2023/09/11 12:52:08;;;;;;;8.40;4.40;;;;;;;33.45;20.83;100310.69;1776391;79;21314;-80
2023/09/11 12:55:14;;;;;;;10.05;4.90;;;;;;;33.47;21.10;100318.88;1775632;79;21289;-79
2023/09/11 12:58:20;;;;;;;9.25;4.75;;;;;;;33.45;21.39;100312.11;1782279;79;21853;-79
2023/09/11 13:01:26;;;;;;;17.57;4.87;;;;;;;33.58;21.39;100311.14;1779735;79;21282;-78
2023/09/11 13:04:31;;;;;;;7.58;4.67;;;;;;;33.37;21.27;100304.98;1765281;79;21247;-79
2023/09/11 13:07:37;;;;;;;13.90;5.20;;;;;;;33.43;21.34;100315.03;1779196;79;21267;-79
2023/09/11 13:10:42;;;;;;;8.88;4.90;;;;;;;33.49;21.12;100308.03;1786555;79;21283;-79
2023/09/11 13:13:48;;;;;;;10.68;4.30;;;;;;;33.47;21.47;100306.13;1782735;79;21310;-79
2023/09/11 13:16:54;;;;;;;12.73;4.30;;;;;;;33.55;21.46;100305.32;1782756;79;21287;-79
2023/09/11 13:20:00;;;;;;;9.23;5.33;;;;;;;33.33;21.32;100297.72;1780310;79;21251;-79
2023/09/11 13:23:07;;;;;;;6.28;4.35;;;;;;;33.40;21.41;100301.47;1782603;79;21286;-79
2023/09/11 13:26:12;;;;;;;10.10;4.17;;;;;;;33.24;21.65;100296.27;1769472;79;21266;-79
2023/09/11 13:29:18;;;;;;;6.08;4.78;;;;;;;33.17;21.47;100287.98;1784966;79;22458;-79
2023/09/11 13:32:24;;;;;;;9.48;4.37;;;;;;;33.46;21.34;100293.12;1768801;81;21306;-79
2023/09/11 13:35:29;;;;;;;8.83;4.60;;;;;;;33.40;21.19;100286.72;1768158;81;21878;-79
2023/09/11 13:38:35;;;;;;;12.40;4.60;;;;;;;33.66;20.99;100288.81;1767141;80;21370;-79
2023/09/11 13:41:42;;;;;;;12.35;5.22;;;;;;;33.68;21.03;100290.14;1769021;81;21302;-79
2023/09/11 13:44:48;;;;;;;6.83;3.80;;;;;;;33.73;21.23;100288.55;1768461;80;22375;-79
2023/09/11 13:47:54;;;;;;;11.80;4.58;;;;;;;33.72;21.08;100287.48;1767709;81;21291;-79
2023/09/11 13:51:00;;;;;;;8.75;4.53;;;;;;;33.63;21.13;100289.47;1767906;79;21298;-79
2023/09/11 13:54:05;;;;;;;7.03;4.53;;;;;;;33.33;21.42;100297.13;1767103;81;21349;-78
2023/09/11 13:57:12;;;;;;;11.80;4.28;;;;;;;33.32;21.32;100293.22;1767382;80;21333;-79
2023/09/11 14:00:17;;;;;;;10.70;4.40;;;;;;;33.29;21.43;100289.03;1767641;81;21322;-79
2023/09/11 14:03:24;;;;;;;7.37;4.17;;;;;;;33.10;21.62;100296.14;1769250;81;21941;-79
2023/09/11 14:06:31;;;;;;;8.40;4.30;;;;;;;33.00;21.72;100293.85;1774468;79;21287;-79
2023/09/11 14:09:38;;;;;;;4.58;3.12;;;;;;;32.87;21.98;100291.09;1800397;79;21263;-79
2023/09/11 14:12:43;;;;;;;7.25;4.00;;;;;;;32.80;22.10;100287.33;1800134;79;21290;-79
2023/09/11 14:15:49;;;;;;;13.25;4.20;;;;;;;32.75;21.96;100288.88;1800585;79;22387;-79
2023/09/11 14:18:54;;;;;;;13.32;3.90;;;;;;;32.75;21.95;100288.88;1799560;79;21267;-79
2023/09/11 14:21:59;;;;;;;8.88;4.22;;;;;;;32.80;21.90;100288.16;1799601;79;21278;-79